Time;durP1;ratioP1;P1;durP2;ratioP2;P2;SDS_P1;SDS_P2;PMS_P1;PMS_P2;Temp;Humidity;BMP_temperature;BMP_pressure;BME280_temperature;BME280_humidity;BME280_pressure;Samples;Min_cycle;Max_cycle;Signal;HPM_P1;HPM_P2
2021/03/28 00:00:57;;;;;;;3.27;2.43;;;11.30;21.20;;;;;;4977961;28;20457;-65
2021/03/28 00:03:46;;;;;;;3.87;2.17;;;11.40;21.30;;;;;;4978512;28;20439;-65
2021/03/28 00:06:28;;;;;;;3.63;2.20;;;11.30;21.20;;;;;;4977976;28;20476;-65
2021/03/28 00:09:10;;;;;;;4.67;2.30;;;11.40;21.10;;;;;;4977653;28;20406;-66
2021/03/28 00:11:50;;;;;;;5.23;2.30;;;11.40;21.60;;;;;;4978368;28;20501;-65
2021/03/28 00:14:21;;;;;;;2.90;2.33;;;11.20;21.10;;;;;;4977704;28;20442;-64
2021/03/28 00:16:48;;;;;;;4.33;2.13;;;11.00;21.50;;;;;;4977871;28;20414;-65
2021/03/28 00:19:31;;;;;;;2.80;2.60;;;11.10;21.50;;;;;;4977418;28;20836;-64
2021/03/28 00:21:59;;;;;;;4.77;2.33;;;11.10;21.30;;;;;;4974882;28;20508;-65
2021/03/28 00:24:53;;;;;;;5.10;2.80;;;11.10;21.70;;;;;;4974662;28;20410;-65
2021/03/28 00:27:28;;;;;;;3.80;2.60;;;11.20;21.70;;;;;;4986752;28;20890;-66
2021/03/28 00:30:01;;;;;;;5.30;2.40;;;11.30;21.40;;;;;;4974572;28;20417;-65
2021/03/28 00:32:49;;;;;;;2.77;2.13;;;11.10;21.90;;;;;;4974633;28;20484;-65
2021/03/28 00:35:19;;;;;;;6.87;2.63;;;11.20;21.30;;;;;;4974858;28;20425;-65
2021/03/28 00:37:57;;;;;;;4.20;2.73;;;11.10;21.70;;;;;;4973956;28;20432;-65
2021/03/28 00:40:26;;;;;;;3.20;2.20;;;11.20;21.40;;;;;;4974289;28;20421;-65
2021/03/28 00:43:22;;;;;;;2.90;2.07;;;11.10;21.20;;;;;;4974312;28;20470;-66
2021/03/28 00:45:57;;;;;;;3.50;2.17;;;10.80;22.00;;;;;;4974907;28;20783;-64
2021/03/28 00:48:29;;;;;;;3.40;2.73;;;11.00;22.10;;;;;;4973969;28;20489;-65
2021/03/28 00:51:16;;;;;;;4.67;3.17;;;11.00;22.00;;;;;;4974395;28;20410;-64
2021/03/28 00:54:00;;;;;;;5.60;2.80;;;11.20;21.80;;;;;;4974204;28;20438;-66
2021/03/28 00:56:52;;;;;;;5.90;2.57;;;11.10;21.70;;;;;;4974575;28;20421;-65
2021/03/28 00:59:32;;;;;;;3.50;2.40;;;11.10;22.00;;;;;;4973662;28;20457;-66
2021/03/28 01:02:10;;;;;;;2.47;2.27;;;10.90;21.80;;;;;;4974124;28;20461;-65
2021/03/28 01:05:17;;;;;;;3.00;2.37;;;10.90;22.30;;;;;;4974127;28;20414;-66
2021/03/28 01:08:02;;;;;;;3.73;2.53;;;10.80;22.10;;;;;;4968692;28;20418;-65
2021/03/28 01:10:50;;;;;;;3.40;2.80;;;10.50;22.40;;;;;;4973970;28;20509;-66
2021/03/28 01:13:59;;;;;;;3.43;2.50;;;10.60;22.90;;;;;;4973799;28;20789;-65
2021/03/28 01:17:02;;;;;;;4.67;2.47;;;10.40;23.00;;;;;;4973858;28;20406;-65
2021/03/28 01:19:42;;;;;;;7.73;2.80;;;10.70;23.30;;;;;;4973490;28;20489;-65
2021/03/28 01:22:31;;;;;;;2.63;2.37;;;10.80;22.50;;;;;;4973601;28;20453;-66
2021/03/28 01:25:19;;;;;;;2.60;2.40;;;10.70;22.50;;;;;;4973673;28;20418;-65
2021/03/28 01:27:51;;;;;;;3.57;2.30;;;10.50;22.70;;;;;;4973065;28;20441;-65
2021/03/28 01:30:21;;;;;;;4.57;2.80;;;10.50;22.70;;;;;;4973673;28;20425;-65
2021/03/28 01:32:57;;;;;;;4.33;2.50;;;10.40;22.80;;;;;;4972947;28;20426;-65
2021/03/28 01:35:31;;;;;;;2.67;2.47;;;10.60;23.00;;;;;;4973613;28;20924;-65
2021/03/28 01:38:30;;;;;;;4.47;2.20;;;10.60;22.80;;;;;;4972861;28;20430;-65
2021/03/28 01:41:08;;;;;;;5.60;2.37;;;10.70;22.40;;;;;;4973248;28;20458;-66
2021/03/28 01:43:58;;;;;;;3.30;2.33;;;10.70;22.40;;;;;;4973329;28;20434;-66
2021/03/28 01:46:52;;;;;;;3.40;2.30;;;10.70;22.70;;;;;;4973553;28;20416;-65
2021/03/28 01:49:39;;;;;;;3.63;2.40;;;10.50;22.70;;;;;;4972685;28;20413;-66
2021/03/28 01:52:12;;;;;;;6.33;2.67;;;10.70;22.50;;;;;;4973042;28;20422;-66
2021/03/28 01:54:51;;;;;;;3.97;2.70;;;10.60;22.50;;;;;;4973337;28;20454;-65
2021/03/28 01:57:23;;;;;;;5.70;2.73;;;10.60;22.80;;;;;;4972737;28;20413;-65
2021/03/28 02:00:17;;;;;;;3.60;2.13;;;10.70;22.40;;;;;;4986070;28;20560;-66
2021/03/28 02:02:55;;;;;;;3.63;2.30;;;10.70;22.40;;;;;;4992362;28;20433;-65
2021/03/28 02:05:42;;;;;;;6.50;2.50;;;10.80;22.70;;;;;;4991733;28;20415;-66
2021/03/28 02:08:25;;;;;;;3.37;2.60;;;10.60;22.40;;;;;;4990792;28;20904;-66
2021/03/28 02:10:56;;;;;;;3.73;2.37;;;10.40;22.90;;;;;;4990881;28;20420;-67
2021/03/28 02:13:35;;;;;;;3.13;2.73;;;10.40;23.00;;;;;;4992204;28;20512;-64
2021/03/28 02:16:15;;;;;;;4.03;2.23;;;10.40;22.90;;;;;;4992250;28;20456;-65
2021/03/28 02:18:49;;;;;;;3.63;2.27;;;10.30;23.00;;;;;;4991588;28;20401;-66
2021/03/28 02:21:33;;;;;;;4.60;2.30;;;10.40;23.00;;;;;;4991986;28;20527;-65
2021/03/28 02:24:18;;;;;;;2.60;2.10;;;10.40;23.40;;;;;;4992035;28;20915;-66
2021/03/28 02:26:48;;;;;;;5.63;2.23;;;10.50;23.30;;;;;;4991957;28;20412;-65
2021/03/28 02:29:40;;;;;;;3.23;2.40;;;10.60;23.20;;;;;;4991358;28;20416;-65
2021/03/28 02:32:43;;;;;;;2.87;2.17;;;10.30;23.40;;;;;;4991905;28;20495;-66
2021/03/28 02:35:11;;;;;;;2.80;2.60;;;10.20;23.40;;;;;;4991674;28;20416;-65
2021/03/28 02:37:51;;;;;;;3.80;2.37;;;10.30;23.40;;;;;;4991084;28;20451;-64
2021/03/28 02:40:26;;;;;;;3.53;2.27;;;10.40;23.50;;;;;;4991865;28;20448;-65
2021/03/28 02:42:58;;;;;;;3.20;2.27;;;10.30;23.40;;;;;;4991652;28;20826;-65
2021/03/28 02:45:29;;;;;;;2.60;2.07;;;10.20;23.40;;;;;;4991159;28;20416;-64
2021/03/28 02:48:19;;;;;;;4.03;2.10;;;10.20;23.30;;;;;;4989913;28;20425;-65
2021/03/28 02:50:44;;;;;;;6.60;3.50;;;9.90;24.60;;;;;;4991386;28;20824;-64
2021/03/28 02:53:41;;;;;;;7.93;2.70;;;9.60;25.00;;;;;;4991588;28;20512;-65
2021/03/28 02:56:27;;;;;;;5.07;1.90;;;9.70;25.30;;;;;;4991564;28;20178;-66
2021/03/28 02:59:27;;;;;;;4.63;2.70;;;9.70;25.10;;;;;;4991051;28;20939;-65
2021/03/28 03:02:39;;;;;;;4.73;2.77;;;9.90;24.80;;;;;;4991371;28;20492;-65
2021/03/28 03:05:34;;;;;;;2.60;2.10;;;10.10;24.10;;;;;;4991459;28;20423;-65
2021/03/28 03:08:29;;;;;;;5.07;2.40;;;10.30;23.60;;;;;;4990955;28;20415;-65
2021/03/28 03:11:11;;;;;;;2.07;1.93;;;10.20;23.30;;;;;;4991459;28;20413;-64
2021/03/28 03:13:46;;;;;;;2.50;2.30;;;10.30;23.70;;;;;;4991446;28;20436;-64
2021/03/28 03:16:22;;;;;;;3.50;2.27;;;10.40;23.50;;;;;;4991494;28;20408;-64
2021/03/28 03:19:20;;;;;;;2.87;2.20;;;10.10;23.30;;;;;;4990836;28;20417;-65
2021/03/28 03:22:08;;;;;;;4.57;2.93;;;10.20;23.70;;;;;;4991273;28;20495;-65
2021/03/28 03:24:52;;;;;;;3.77;2.70;;;10.20;23.30;;;;;;4991494;28;20437;-65
2021/03/28 03:27:39;;;;;;;3.83;2.30;;;10.10;23.60;;;;;;4990930;28;20458;-65
2021/03/28 03:30:34;;;;;;;3.87;2.40;;;10.00;23.60;;;;;;4991162;28;20474;-65
2021/03/28 03:33:29;;;;;;;3.20;2.73;;;9.90;24.40;;;;;;4991340;28;20425;-65
2021/03/28 03:35:57;;;;;;;6.33;2.80;;;9.90;24.50;;;;;;4991280;28;20405;-65
2021/03/28 03:39:01;;;;;;;3.87;2.20;;;9.80;24.50;;;;;;4990880;28;21015;-65
2021/03/28 03:41:38;;;;;;;4.30;2.67;;;9.80;24.60;;;;;;4991099;28;20453;-66
2021/03/28 03:44:09;;;;;;;3.13;2.20;;;9.70;24.60;;;;;;4991102;28;20424;-67
2021/03/28 03:46:45;;;;;;;4.73;2.60;;;9.70;24.80;;;;;;4991048;28;20428;-65
2021/03/28 03:49:44;;;;;;;5.03;2.63;;;9.90;24.70;;;;;;4990526;28;20559;-65
2021/03/28 03:52:30;;;;;;;7.50;3.13;;;9.70;24.70;;;;;;4991026;28;20409;-66
2021/03/28 03:55:06;;;;;;;3.33;2.77;;;9.60;25.20;;;;;;4991463;28;20410;-67
2021/03/28 03:57:42;;;;;;;9.00;2.50;;;9.60;24.90;;;;;;4994232;28;20405;-65
2021/03/28 04:00:14;;;;;;;5.43;2.97;;;9.60;25.30;;;;;;4994684;28;20504;-65
2021/03/28 04:02:51;;;;;;;5.37;2.87;;;9.80;24.80;;;;;;4994607;28;20523;-65
2021/03/28 04:05:20;;;;;;;5.13;2.50;;;9.70;24.80;;;;;;4994606;28;20780;-65
2021/03/28 04:08:17;;;;;;;6.13;3.27;;;9.80;24.90;;;;;;4994011;28;21217;-65
2021/03/28 04:11:10;;;;;;;4.97;2.77;;;9.70;24.80;;;;;;4994412;28;20413;-66
2021/03/28 04:14:14;;;;;;;2.47;2.20;;;9.60;25.20;;;;;;4990262;28;20967;-65
2021/03/28 04:17:04;;;;;;;3.83;2.23;;;9.80;25.20;;;;;;4981460;28;20479;-66
2021/03/28 04:19:32;;;;;;;4.30;2.10;;;9.60;25.20;;;;;;4976967;28;20413;-66
2021/03/28 04:22:16;;;;;;;4.90;2.50;;;9.60;24.90;;;;;;4974653;28;20612;-66
2021/03/28 04:25:13;;;;;;;7.10;3.57;;;9.60;25.20;;;;;;4974705;28;20402;-66
2021/03/28 04:28:06;;;;;;;3.57;2.50;;;9.80;25.40;;;;;;4974234;28;20406;-66
2021/03/28 04:30:44;;;;;;;4.47;2.37;;;9.70;25.20;;;;;;4974579;28;20410;-66
2021/03/28 04:33:22;;;;;;;5.50;2.73;;;9.80;24.70;;;;;;4974848;28;20433;-65
2021/03/28 04:35:58;;;;;;;6.97;2.80;;;9.70;24.80;;;;;;4974625;28;20422;-65
2021/03/28 04:39:02;;;;;;;4.00;2.60;;;9.50;25.10;;;;;;4973993;28;20928;-64
2021/03/28 04:41:48;;;;;;;3.03;2.27;;;9.60;25.60;;;;;;4952911;29;20498;-64
2021/03/28 04:44:35;;;;;;;3.30;2.00;;;9.60;25.50;;;;;;4952738;29;20435;-65
2021/03/28 04:47:12;;;;;;;2.90;2.27;;;9.60;25.10;;;;;;4968808;28;20901;-65
2021/03/28 04:50:15;;;;;;;2.77;2.03;;;9.50;24.90;;;;;;4974304;28;20440;-66
2021/03/28 04:53:02;;;;;;;9.00;3.17;;;9.50;25.30;;;;;;4974139;28;20440;-64
2021/03/28 04:55:56;;;;;;;3.03;2.73;;;9.50;25.40;;;;;;4973087;28;20426;-67
2021/03/28 04:58:38;;;;;;;5.17;2.67;;;9.60;25.60;;;;;;4977372;28;20448;-67
2021/03/28 05:01:06;;;;;;;2.70;2.50;;;9.70;26.10;;;;;;4982718;28;20470;-66
2021/03/28 05:03:50;;;;;;;5.50;3.10;;;9.80;26.00;;;;;;4974061;28;20426;-65
2021/03/28 05:06:34;;;;;;;3.73;2.40;;;9.80;25.80;;;;;;4973767;28;20406;-68
2021/03/28 05:09:05;;;;;;;3.57;2.30;;;9.90;25.80;;;;;;4973430;28;20501;-67
2021/03/28 05:12:07;;;;;;;7.97;1.93;;;10.00;24.70;;;;;;4974209;28;20414;-67
2021/03/28 05:14:50;;;;;;;3.73;2.20;;;10.10;24.20;;;;;;4974208;28;20812;-67
2021/03/28 05:17:40;;;;;;;4.10;2.80;;;10.10;24.30;;;;;;4973644;28;20767;-67
2021/03/28 05:20:17;;;;;;;4.40;2.97;;;10.10;24.30;;;;;;4974164;28;20534;-67
2021/03/28 05:22:45;;;;;;;6.40;3.50;;;10.10;24.70;;;;;;4972717;28;20469;-67
2021/03/28 05:25:31;;;;;;;3.10;2.40;;;10.00;24.60;;;;;;4973899;28;20414;-67
2021/03/28 05:28:18;;;;;;;4.90;3.20;;;9.90;25.20;;;;;;4973290;28;20417;-67
2021/03/28 05:31:18;;;;;;;5.73;2.37;;;9.70;25.70;;;;;;4972739;28;20410;-67
2021/03/28 05:34:18;;;;;;;3.50;2.90;;;9.70;25.90;;;;;;4973523;28;20426;-67
2021/03/28 05:37:09;;;;;;;2.97;2.20;;;9.80;26.20;;;;;;4973549;28;20399;-67
2021/03/28 05:39:52;;;;;;;3.93;2.77;;;9.80;25.90;;;;;;4973420;28;21011;-67
2021/03/28 05:42:41;;;;;;;3.20;2.73;;;10.00;25.10;;;;;;4973371;28;20497;-67
2021/03/28 05:45:34;;;;;;;10.60;3.20;;;10.00;25.40;;;;;;4973341;28;20465;-67
2021/03/28 05:48:36;;;;;;;2.80;2.50;;;10.10;25.10;;;;;;4972895;28;20406;-67
2021/03/28 05:51:32;;;;;;;4.47;2.50;;;10.20;25.20;;;;;;4973182;28;20496;-67
2021/03/28 05:54:25;;;;;;;3.30;2.40;;;10.30;25.00;;;;;;4969697;28;20457;-67
2021/03/28 05:57:24;;;;;;;3.97;2.67;;;10.30;24.60;;;;;;4972992;28;20529;-66
2021/03/28 06:00:16;;;;;;;4.97;2.57;;;10.30;24.60;;;;;;4979066;28;20425;-66
2021/03/28 06:03:28;;;;;;;5.67;3.70;;;10.30;25.10;;;;;;4989528;28;20517;-66
2021/03/28 06:06:31;;;;;;;2.93;2.70;;;10.20;24.90;;;;;;4971774;28;20749;-67
2021/03/28 06:09:27;;;;;;;8.27;6.20;;;10.10;25.40;;;;;;4962015;28;20454;-64
2021/03/28 06:12:20;;;;;;;6.87;3.30;;;11.10;27.90;;;;;;4991401;28;20776;-64
2021/03/28 06:15:19;;;;;;;9.47;3.20;;;13.60;36.10;;;;;;4992012;28;20405;-65
2021/03/28 06:18:21;;;;;;;4.57;2.00;;;13.00;28.80;;;;;;4991363;28;20393;-65
2021/03/28 06:20:56;;;;;;;6.30;2.57;;;13.60;31.10;;;;;;4991273;28;20464;-63
2021/03/28 06:23:58;;;;;;;5.73;3.00;;;14.00;31.90;;;;;;4990977;28;20431;-65
2021/03/28 06:26:42;;;;;;;4.53;3.60;;;13.60;27.60;;;;;;4987430;28;20413;-65
2021/03/28 06:29:33;;;;;;;2.67;2.07;;;14.10;29.30;;;;;;4984485;28;20497;-65
2021/03/28 06:32:17;;;;;;;3.97;2.83;;;14.90;25.50;;;;;;4985702;28;20437;-64
2021/03/28 06:35:21;;;;;;;4.00;3.10;;;14.40;25.00;;;;;;4984496;28;20448;-65
2021/03/28 06:38:06;;;;;;;4.53;2.90;;;14.20;26.40;;;;;;4971846;28;20429;-64
2021/03/28 06:41:02;;;;;;;3.70;2.80;;;13.40;22.90;;;;;;4972122;28;20432;-64
2021/03/28 06:44:05;;;;;;;4.20;3.00;;;13.70;21.30;;;;;;4979745;28;20444;-65
2021/03/28 06:46:57;;;;;;;3.00;2.60;;;12.90;22.30;;;;;;4983690;28;20416;-65
2021/03/28 06:49:34;;;;;;;5.83;2.73;;;12.90;25.20;;;;;;4988102;28;20416;-64
2021/03/28 06:51:59;;;;;;;4.90;2.47;;;13.00;21.70;;;;;;4990650;28;20424;-65
2021/03/28 06:55:14;;;;;;;3.83;2.60;;;12.70;29.30;;;;;;4991358;28;20424;-65
2021/03/28 06:58:00;;;;;;;4.13;2.83;;;13.00;22.30;;;;;;4971946;28;20237;-64
2021/03/28 07:00:56;;;;;;;3.10;2.60;;;13.10;22.20;;;;;;4988638;28;20991;-65
2021/03/28 07:03:49;;;;;;;3.93;2.33;;;12.10;25.40;;;;;;4979378;28;20983;-63
2021/03/28 07:06:36;;;;;;;3.77;2.87;;;11.60;25.20;;;;;;4970826;28;20410;-65
2021/03/28 07:09:33;;;;;;;6.70;4.30;;;11.60;23.20;;;;;;4970556;28;20417;-64
2021/03/28 07:12:09;;;;;;;8.73;2.93;;;11.30;24.40;;;;;;4971143;28;20505;-65
2021/03/28 07:14:46;;;;;;;3.20;2.40;;;11.50;25.80;;;;;;4971608;28;20565;-65
2021/03/28 07:17:53;;;;;;;5.60;2.53;;;11.50;23.70;;;;;;4971204;28;20417;-67
2021/03/28 07:20:32;;;;;;;2.13;2.00;;;11.00;23.50;;;;;;4971811;28;20772;-67
2021/03/28 07:23:28;;;;;;;3.07;2.77;;;10.80;23.80;;;;;;4972068;28;20844;-66
2021/03/28 07:26:30;;;;;;;4.60;2.50;;;10.90;23.80;;;;;;4971853;28;20920;-66
2021/03/28 07:29:15;;;;;;;3.17;2.87;;;10.90;23.90;;;;;;4971194;28;20482;-66
2021/03/28 07:31:59;;;;;;;6.53;2.80;;;10.90;23.80;;;;;;4975167;28;20486;-67
2021/03/28 07:35:06;;;;;;;5.43;2.80;;;10.90;23.80;;;;;;4975718;28;20409;-66
2021/03/28 07:38:09;;;;;;;8.30;2.73;;;11.00;23.90;;;;;;4975116;28;20437;-67
2021/03/28 07:41:05;;;;;;;6.77;2.73;;;11.00;23.90;;;;;;4975408;28;20472;-67
2021/03/28 07:43:48;;;;;;;6.13;3.00;;;11.10;23.70;;;;;;4975583;28;20588;-67
2021/03/28 07:46:35;;;;;;;6.30;2.83;;;11.00;23.90;;;;;;4979252;28;20415;-66
2021/03/28 07:49:48;;;;;;;4.83;2.77;;;11.10;23.90;;;;;;4993104;28;20471;-66
2021/03/28 07:52:22;;;;;;;5.60;2.87;;;11.20;23.70;;;;;;4994891;28;20443;-66
2021/03/28 07:55:12;;;;;;;2.73;2.13;;;11.30;23.40;;;;;;4994874;28;20421;-67
2021/03/28 07:57:46;;;;;;;5.43;2.77;;;11.30;23.30;;;;;;4994236;28;20505;-66
2021/03/28 08:00:20;;;;;;;4.30;2.77;;;11.40;23.10;;;;;;4994704;28;20436;-66
2021/03/28 08:03:22;;;;;;;3.20;2.90;;;11.40;22.80;;;;;;4994614;28;20464;-67
2021/03/28 08:05:57;;;;;;;2.87;2.50;;;11.40;23.00;;;;;;4994246;28;20421;-68
2021/03/28 08:08:28;;;;;;;3.10;2.50;;;11.60;22.90;;;;;;4994008;28;20427;-65
2021/03/28 08:11:06;;;;;;;4.40;2.10;;;11.70;22.70;;;;;;4994554;28;20936;-66
2021/03/28 08:13:55;;;;;;;6.70;2.77;;;11.80;22.60;;;;;;4994554;28;20428;-67
2021/03/28 08:17:16;;;;;;;5.77;1.90;;;11.80;22.50;;;;;;4994641;28;20500;-66
2021/03/28 08:19:55;;;;;;;5.17;2.60;;;11.90;22.50;;;;;;4993170;28;20429;-67
2021/03/28 08:22:36;;;;;;;3.30;2.40;;;12.00;22.60;;;;;;4994252;28;20468;-66
2021/03/28 08:25:40;;;;;;;6.47;2.67;;;12.00;22.50;;;;;;4994397;28;20416;-66
2021/03/28 08:28:38;;;;;;;6.20;2.63;;;11.80;23.10;;;;;;4993716;28;20408;-66
2021/03/28 08:31:28;;;;;;;3.00;2.23;;;11.70;23.40;;;;;;4994152;28;20419;-66
2021/03/28 08:34:21;;;;;;;5.40;2.40;;;11.80;22.90;;;;;;4993536;28;20439;-66
2021/03/28 08:36:58;;;;;;;5.07;2.57;;;11.80;23.00;;;;;;4994186;28;20776;-66
2021/03/28 08:39:39;;;;;;;4.13;2.50;;;11.70;22.90;;;;;;4993821;28;20448;-65
2021/03/28 08:42:36;;;;;;;7.87;2.67;;;11.60;23.40;;;;;;4992796;28;20506;-66
2021/03/28 08:45:20;;;;;;;6.43;2.63;;;11.60;23.50;;;;;;4993937;28;20525;-67
2021/03/28 08:48:27;;;;;;;3.37;2.27;;;11.70;23.40;;;;;;4993148;28;20416;-66
2021/03/28 08:51:16;;;;;;;3.80;2.73;;;11.80;22.80;;;;;;4994350;28;20417;-66
2021/03/28 08:53:50;;;;;;;3.53;1.97;;;12.10;22.60;;;;;;4994014;28;20429;-67
2021/03/28 08:56:33;;;;;;;3.03;2.10;;;12.20;22.20;;;;;;4994354;28;20779;-67
2021/03/28 08:59:08;;;;;;;7.10;3.30;;;12.20;22.20;;;;;;4993954;28;20417;-66
2021/03/28 09:01:44;;;;;;;2.27;2.00;;;12.20;21.60;;;;;;4994210;28;20460;-66
2021/03/28 09:04:15;;;;;;;3.43;2.30;;;12.40;21.30;;;;;;4993814;28;20963;-67
2021/03/28 09:06:46;;;;;;;4.13;2.63;;;12.50;20.50;;;;;;4993400;28;20420;-67
2021/03/28 09:09:49;;;;;;;3.27;2.07;;;12.60;20.20;;;;;;4992813;28;20449;-66
2021/03/28 09:12:32;;;;;;;6.87;2.47;;;12.70;20.80;;;;;;4992542;28;20433;-67
2021/03/28 09:15:24;;;;;;;3.07;2.33;;;12.60;20.50;;;;;;4988532;28;20963;-66
2021/03/28 09:18:04;;;;;;;4.17;2.73;;;12.80;19.90;;;;;;4970503;28;20425;-66
2021/03/28 09:20:45;;;;;;;3.03;1.77;;;12.90;19.60;;;;;;4988754;28;20784;-66
2021/03/28 09:23:36;;;;;;;3.47;2.03;;;12.70;16.80;;;;;;4986234;28;20461;-66
2021/03/28 09:26:33;;;;;;;4.10;2.53;;;12.80;16.80;;;;;;4962257;28;20434;-68
2021/03/28 09:29:35;;;;;;;2.17;1.83;;;12.90;16.90;;;;;;4976807;28;20529;-67
2021/03/28 09:32:21;;;;;;;5.20;2.50;;;12.90;16.30;;;;;;4972778;28;20863;-68
2021/03/28 09:35:38;;;;;;;2.53;2.33;;;13.20;16.60;;;;;;4989826;28;20503;-66
2021/03/28 09:38:13;;;;;;;3.70;1.70;;;13.00;15.30;;;;;;4990627;28;20441;-66
2021/03/28 09:40:50;;;;;;;2.00;1.90;;;13.20;16.20;;;;;;4987458;28;20417;-66
2021/03/28 09:43:51;;;;;;;2.40;1.77;;;13.40;16.00;;;;;;4972105;28;20859;-66
2021/03/28 09:46:47;;;;;;;3.93;2.23;;;13.60;15.30;;;;;;4962926;28;20421;-66
2021/03/28 09:49:25;;;;;;;3.70;2.10;;;13.60;14.30;;;;;;4977122;28;20810;-64
2021/03/28 09:51:51;;;;;;;2.47;2.27;;;13.70;13.90;;;;;;4972425;28;20406;-65
2021/03/28 09:54:35;;;;;;;3.43;1.70;;;13.70;14.10;;;;;;4988595;28;20872;-65
2021/03/28 09:57:18;;;;;;;2.60;2.10;;;14.00;13.80;;;;;;4983822;28;20222;-65
2021/03/28 10:00:02;;;;;;;5.43;2.23;;;14.20;14.20;;;;;;4988610;28;20467;-65
2021/03/28 10:02:43;;;;;;;7.27;2.53;;;14.20;15.30;;;;;;4992186;28;20575;-65
2021/03/28 10:05:23;;;;;;;3.83;1.97;;;14.10;14.70;;;;;;4992412;28;20410;-64
2021/03/28 10:08:09;;;;;;;3.27;2.27;;;14.20;15.20;;;;;;4990854;28;20947;-65
2021/03/28 10:10:45;;;;;;;4.63;2.10;;;14.30;16.00;;;;;;4992477;28;20510;-65
2021/03/28 10:13:29;;;;;;;2.90;2.27;;;14.50;14.90;;;;;;4976393;28;20543;-65
2021/03/28 10:16:00;;;;;;;3.30;2.07;;;14.50;14.60;;;;;;4972997;28;20417;-66
2021/03/28 10:18:32;;;;;;;5.23;2.57;;;14.40;15.10;;;;;;4972595;28;20441;-65
2021/03/28 10:21:21;;;;;;;5.43;2.17;;;14.30;14.30;;;;;;4985528;28;20473;-65
2021/03/28 10:24:03;;;;;;;2.40;1.90;;;14.30;14.20;;;;;;4985947;28;20525;-65
2021/03/28 10:26:44;;;;;;;4.43;3.10;;;14.60;14.00;;;;;;4971812;28;20747;-65
2021/03/28 10:29:43;;;;;;;3.33;2.10;;;14.90;13.50;;;;;;4971431;28;20409;-65
2021/03/28 10:32:18;;;;;;;1.60;1.50;;;14.60;13.40;;;;;;4979722;28;20475;-66
2021/03/28 10:34:58;;;;;;;5.33;2.77;;;14.70;13.60;;;;;;4983692;28;20432;-66
2021/03/28 10:37:38;;;;;;;3.83;2.30;;;14.80;13.40;;;;;;4991244;28;20444;-69
2021/03/28 10:40:41;;;;;;;2.93;2.13;;;14.60;13.60;;;;;;4991739;28;20432;-67
2021/03/28 10:43:26;;;;;;;4.23;1.97;;;14.50;13.70;;;;;;4990337;28;20456;-67
2021/03/28 10:46:16;;;;;;;4.20;3.10;;;14.80;13.50;;;;;;4991943;28;20916;-66
2021/03/28 10:49:13;;;;;;;3.23;2.30;;;15.10;13.90;;;;;;4991318;28;20437;-66
2021/03/28 10:52:03;;;;;;;3.13;1.90;;;15.30;12.90;;;;;;4987834;28;20418;-66
2021/03/28 10:55:11;;;;;;;5.47;2.60;;;15.10;12.80;;;;;;4974726;28;20433;-66
2021/03/28 10:58:15;;;;;;;3.20;2.53;;;15.20;13.50;;;;;;4971640;28;20427;-67
2021/03/28 11:00:59;;;;;;;5.20;1.90;;;15.30;12.50;;;;;;4971926;28;20406;-67
2021/03/28 11:04:02;;;;;;;4.63;2.40;;;15.50;12.60;;;;;;4990541;28;20943;-66
2021/03/28 11:06:47;;;;;;;2.20;2.00;;;15.70;12.40;;;;;;4989071;28;20413;-67
2021/03/28 11:09:12;;;;;;;2.13;1.90;;;15.80;12.30;;;;;;4990464;28;20470;-67
2021/03/28 11:12:12;;;;;;;4.00;2.40;;;15.70;11.80;;;;;;4972747;28;20909;-67
2021/03/28 11:15:01;;;;;;;4.07;2.00;;;15.50;12.50;;;;;;4971453;28;20182;-66
2021/03/28 11:17:39;;;;;;;2.50;1.87;;;15.60;12.20;;;;;;4979030;28;20420;-66
2021/03/28 11:20:29;;;;;;;5.27;2.83;;;15.70;12.10;;;;;;4991304;28;20407;-66
2021/03/28 11:23:38;;;;;;;5.37;2.20;;;16.00;12.00;;;;;;4979632;28;20473;-67
2021/03/28 11:26:42;;;;;;;3.87;2.53;;;16.10;12.10;;;;;;4988585;28;20450;-67
2021/03/28 11:29:23;;;;;;;4.40;2.77;;;16.30;11.60;;;;;;4971167;28;20434;-65
2021/03/28 11:32:16;;;;;;;3.80;2.50;;;16.50;11.30;;;;;;4977782;28;20421;-65
2021/03/28 11:35:06;;;;;;;4.83;2.27;;;16.90;11.00;;;;;;4979836;28;20448;-67
2021/03/28 11:37:37;;;;;;;3.20;2.13;;;16.70;10.80;;;;;;4991197;28;20425;-66
2021/03/28 11:40:18;;;;;;;3.23;2.67;;;16.90;12.20;;;;;;4992199;28;20408;-66
2021/03/28 11:43:11;;;;;;;3.00;1.73;;;17.00;11.00;;;;;;4988842;28;20463;-66
2021/03/28 11:45:45;;;;;;;2.00;1.80;;;17.00;11.00;;;;;;4962710;28;20421;-66
2021/03/28 11:48:42;;;;;;;3.90;2.33;;;16.90;11.20;;;;;;4990641;28;20478;-66
2021/03/28 11:51:36;;;;;;;3.07;2.20;;;17.40;11.30;;;;;;4994119;28;20521;-66
2021/03/28 11:54:11;;;;;;;7.57;2.97;;;17.50;11.50;;;;;;4971792;28;20437;-65
2021/03/28 11:56:54;;;;;;;2.93;2.60;;;17.60;11.50;;;;;;4981011;28;20417;-66
2021/03/28 11:59:28;;;;;;;6.50;2.70;;;17.40;11.30;;;;;;4986292;28;20448;-66
2021/03/28 12:01:59;;;;;;;3.37;2.50;;;17.50;11.20;;;;;;4982731;28;20971;-66
2021/03/28 12:04:28;;;;;;;3.70;2.50;;;16.90;11.60;;;;;;4983158;28;20421;-66
2021/03/28 12:07:20;;;;;;;3.10;2.43;;;17.00;12.00;;;;;;4985270;28;20414;-66
2021/03/28 12:10:01;;;;;;;4.50;2.60;;;16.70;10.80;;;;;;4972163;28;20402;-66
2021/03/28 12:12:39;;;;;;;4.30;2.20;;;16.80;11.90;;;;;;4971906;28;20440;-66
2021/03/28 12:15:42;;;;;;;4.03;2.53;;;17.00;12.10;;;;;;4980907;28;20516;-66
2021/03/28 12:18:22;;;;;;;3.27;2.40;;;16.90;11.30;;;;;;4974787;28;20406;-67
2021/03/28 12:21:03;;;;;;;3.30;2.23;;;17.00;11.50;;;;;;4973870;28;20454;-67
2021/03/28 12:23:35;;;;;;;4.60;2.30;;;17.00;11.40;;;;;;4975126;28;20508;-66
2021/03/28 12:26:36;;;;;;;5.17;2.00;;;17.00;11.10;;;;;;4980550;28;20429;-65
2021/03/28 12:29:03;;;;;;;3.67;2.20;;;16.80;10.90;;;;;;4978297;28;20899;-66
2021/03/28 12:31:42;;;;;;;2.53;2.23;;;16.40;11.40;;;;;;4994746;28;20413;-66
2021/03/28 12:34:08;;;;;;;2.33;1.80;;;16.40;12.00;;;;;;4994438;28;20997;-68
2021/03/28 12:36:54;;;;;;;6.73;2.40;;;16.20;11.60;;;;;;4989516;28;20426;-68
2021/03/28 12:39:27;;;;;;;2.30;2.10;;;16.30;11.40;;;;;;4987303;28;20729;-68
2021/03/28 12:42:02;;;;;;;2.90;2.07;;;16.40;11.80;;;;;;4993586;28;20468;-66
2021/03/28 12:44:38;;;;;;;3.90;3.60;;;16.40;11.80;;;;;;4994225;28;20409;-67
2021/03/28 12:47:13;;;;;;;3.57;3.20;;;16.60;12.60;;;;;;4991564;28;20479;-67
2021/03/28 12:49:53;;;;;;;4.63;2.27;;;16.40;11.50;;;;;;4981794;28;20429;-66
2021/03/28 12:52:25;;;;;;;2.20;2.00;;;16.30;11.90;;;;;;4978576;28;20434;-67
2021/03/28 12:54:51;;;;;;;2.13;1.93;;;16.40;11.80;;;;;;4978265;28;20782;-67
2021/03/28 12:57:37;;;;;;;3.40;2.20;;;16.40;11.50;;;;;;4986811;28;20433;-67
2021/03/28 13:00:29;;;;;;;6.73;3.00;;;16.50;12.00;;;;;;4986973;28;20607;-67
2021/03/28 13:02:57;;;;;;;8.40;2.50;;;16.50;11.90;;;;;;4987979;28;20770;-67
2021/03/28 13:05:28;;;;;;;3.60;3.03;;;16.50;12.10;;;;;;4993989;28;20413;-67
2021/03/28 13:07:57;;;;;;;3.17;2.50;;;16.30;12.20;;;;;;4993378;28;20441;-68
2021/03/28 13:10:34;;;;;;;5.50;2.47;;;16.20;12.20;;;;;;4975537;28;20533;-67
2021/03/28 13:13:15;;;;;;;4.10;2.00;;;16.50;12.80;;;;;;4974158;28;20429;-64
2021/03/28 13:15:56;;;;;;;2.23;2.03;;;16.60;12.10;;;;;;4974048;28;20405;-66
2021/03/28 13:18:47;;;;;;;5.97;2.70;;;16.30;12.10;;;;;;4977325;28;20420;-67
2021/03/28 13:21:24;;;;;;;2.87;2.63;;;16.40;12.10;;;;;;4993081;28;20464;-67
2021/03/28 13:23:50;;;;;;;4.87;3.10;;;16.50;12.00;;;;;;4992936;28;20444;-67
2021/03/28 13:26:18;;;;;;;3.20;2.13;;;16.70;12.70;;;;;;4990505;28;20900;-67
2021/03/28 13:28:57;;;;;;;3.37;2.30;;;16.70;11.70;;;;;;4991551;28;20198;-68
2021/03/28 13:31:25;;;;;;;2.63;2.43;;;16.60;12.00;;;;;;4993062;28;20446;-66
2021/03/28 13:33:55;;;;;;;2.40;2.20;;;16.70;11.70;;;;;;4991133;28;20453;-68
2021/03/28 13:36:37;;;;;;;3.10;2.17;;;16.90;12.30;;;;;;4992884;28;20923;-66
2021/03/28 13:39:08;;;;;;;3.90;2.67;;;16.70;11.50;;;;;;4992005;28;20440;-67
2021/03/28 13:41:57;;;;;;;2.53;2.33;;;16.70;11.80;;;;;;4992319;28;20468;-67
2021/03/28 13:44:32;;;;;;;3.90;2.20;;;16.70;11.60;;;;;;4993120;28;20413;-67
2021/03/28 13:47:02;;;;;;;3.67;2.10;;;16.80;11.90;;;;;;4992762;28;20503;-67
2021/03/28 13:49:29;;;;;;;5.30;2.50;;;16.90;11.70;;;;;;4991212;28;20429;-67
2021/03/28 13:52:24;;;;;;;4.30;2.10;;;16.80;11.10;;;;;;4993177;28;20409;-66
2021/03/28 13:55:11;;;;;;;4.10;2.20;;;16.70;11.50;;;;;;4985213;28;20453;-65
2021/03/28 13:57:42;;;;;;;3.60;2.83;;;16.80;11.50;;;;;;4987070;28;20441;-64
2021/03/28 14:00:19;;;;;;;2.37;2.20;;;16.80;11.20;;;;;;4992158;28;20443;-66
2021/03/28 14:02:49;;;;;;;3.00;1.90;;;16.90;11.80;;;;;;4988511;28;20476;-66
2021/03/28 14:05:17;;;;;;;3.00;2.30;;;16.90;11.30;;;;;;4975540;28;20833;-66
2021/03/28 14:07:44;;;;;;;2.67;2.47;;;17.00;11.30;;;;;;4972246;28;20465;-66
2021/03/28 14:10:19;;;;;;;4.60;2.30;;;16.90;11.30;;;;;;4971606;28;20410;-65
2021/03/28 14:12:54;;;;;;;2.70;2.20;;;16.90;12.00;;;;;;4973055;28;20975;-66
2021/03/28 14:15:28;;;;;;;2.27;2.03;;;16.90;11.00;;;;;;4972766;28;20417;-66
2021/03/28 14:17:57;;;;;;;2.50;1.77;;;16.80;11.20;;;;;;4972634;28;20769;-67